createdAt,value
2018-07-30T00:00:51.333Z,1008.94
2018-07-30T00:01:59.979Z,1008.96
2018-07-30T00:03:08.885Z,1008.93
2018-07-30T00:04:17.535Z,1008.97
2018-07-30T00:05:26.246Z,1008.93
2018-07-30T00:06:35.222Z,1008.96
2018-07-30T00:07:43.876Z,1008.92
2018-07-30T00:08:52.523Z,1008.96
2018-07-30T00:10:01.177Z,1008.94
2018-07-30T00:11:09.826Z,1008.93
2018-07-30T00:12:18.478Z,1008.92
2018-07-30T00:13:27.127Z,1008.97
2018-07-30T00:14:35.776Z,1008.96
2018-07-30T00:15:44.429Z,1008.94
2018-07-30T00:16:53.080Z,1008.95
2018-07-30T00:18:01.995Z,1008.95
2018-07-30T00:19:10.646Z,1008.95
2018-07-30T00:20:19.305Z,1008.93
2018-07-30T00:21:27.970Z,1008.93
2018-07-30T00:22:36.604Z,1008.92
2018-07-30T00:23:45.254Z,1008.9
2018-07-30T00:24:53.901Z,1008.92
2018-07-30T00:26:02.559Z,1008.93
2018-07-30T00:27:11.210Z,1008.9
2018-07-30T00:28:19.866Z,1008.91
2018-07-30T00:29:28.516Z,1008.93
2018-07-30T00:30:37.201Z,1008.95
2018-07-30T00:31:45.816Z,1008.89
2018-07-30T00:32:54.464Z,1008.9
2018-07-30T00:34:03.124Z,1008.87
2018-07-30T00:35:11.774Z,1008.85
2018-07-30T00:36:20.425Z,1008.92
2018-07-30T00:37:29.072Z,1008.88
2018-07-30T00:38:37.726Z,1008.9
2018-07-30T00:39:46.375Z,1008.87
2018-07-30T00:40:55.026Z,1008.89
2018-07-30T00:42:03.671Z,1008.93
2018-07-30T00:43:12.324Z,1008.91
2018-07-30T00:44:21.243Z,1008.89
2018-07-30T00:45:29.894Z,1008.94
2018-07-30T00:46:38.544Z,1008.93
2018-07-30T00:47:47.196Z,1008.9
2018-07-30T00:48:56.120Z,1008.93
2018-07-30T00:50:04.771Z,1008.97
2018-07-30T00:51:13.424Z,1009
2018-07-30T00:52:22.070Z,1008.99
2018-07-30T00:53:30.721Z,1008.99
2018-07-30T00:54:39.371Z,1008.98
2018-07-30T00:55:48.025Z,1008.95
2018-07-30T00:56:56.724Z,1008.95
2018-07-30T00:58:05.327Z,1008.95
2018-07-30T00:59:13.970Z,1008.95
2018-07-30T01:00:22.625Z,1008.96
2018-07-30T01:01:31.270Z,1008.93
2018-07-30T01:02:39.922Z,1008.93
2018-07-30T01:03:48.570Z,1008.95
2018-07-30T01:04:57.229Z,1008.93
2018-07-30T01:06:05.876Z,1008.9
2018-07-30T01:07:14.526Z,1008.93
2018-07-30T01:08:23.174Z,1008.87
2018-07-30T01:09:31.819Z,1008.92
2018-07-30T01:10:40.478Z,1008.92
2018-07-30T01:11:49.126Z,1008.96
2018-07-30T01:12:58.041Z,1008.96
2018-07-30T01:14:06.687Z,1008.94
2018-07-30T01:15:15.342Z,1009
2018-07-30T01:16:23.991Z,1008.96
2018-07-30T01:17:32.641Z,1008.98
2018-07-30T01:18:41.285Z,1009
2018-07-30T01:19:49.934Z,1009.02
2018-07-30T01:20:58.581Z,1009.02
2018-07-30T01:22:07.238Z,1009.01
2018-07-30T01:23:15.879Z,1009
2018-07-30T01:24:24.531Z,1008.99
2018-07-30T01:25:33.452Z,1009.05
2018-07-30T01:26:42.382Z,1009.04
2018-07-30T01:27:51.298Z,1009
2018-07-30T01:28:59.939Z,1009.04
2018-07-30T01:30:08.594Z,1009.01
2018-07-30T01:31:17.239Z,1009.04
2018-07-30T01:32:25.901Z,1009.06
2018-07-30T01:33:34.544Z,1009.02
2018-07-30T01:34:43.198Z,1009.05
2018-07-30T01:35:51.844Z,1009.04
2018-07-30T01:37:00.505Z,1009.05
2018-07-30T01:38:09.145Z,1009.07
2018-07-30T01:39:17.797Z,1009.05
2018-07-30T01:40:26.443Z,1009.04
2018-07-30T01:41:35.367Z,1009.06
2018-07-30T01:42:44.014Z,1009.03
2018-07-30T01:43:52.656Z,1009.06
2018-07-30T01:45:01.307Z,1009.07
2018-07-30T01:46:09.958Z,1009.09
2018-07-30T01:47:18.618Z,1009.03
2018-07-30T01:48:27.261Z,1009.03
2018-07-30T01:49:35.917Z,1009.03
2018-07-30T01:50:44.558Z,1009.06
2018-07-30T01:51:53.217Z,1009.03
2018-07-30T01:53:01.861Z,1009.04
2018-07-30T01:54:11.047Z,1009.06
2018-07-30T01:55:19.720Z,1009.08
2018-07-30T01:56:28.347Z,1009.11
2018-07-30T01:57:36.995Z,1009.13
2018-07-30T01:58:45.646Z,1009.13
2018-07-30T01:59:54.553Z,1009.15
2018-07-30T02:01:03.466Z,1009.19
2018-07-30T02:02:12.126Z,1009.18
2018-07-30T02:03:20.779Z,1009.18
2018-07-30T02:04:29.430Z,1009.19
2018-07-30T02:05:38.068Z,1009.17
2018-07-30T02:06:46.727Z,1009.19
2018-07-30T02:07:55.634Z,1009.15
2018-07-30T02:09:04.560Z,1009.12
2018-07-30T02:10:13.200Z,1009.11
2018-07-30T02:11:21.852Z,1009.13
2018-07-30T02:12:30.497Z,1009.14
2018-07-30T02:13:39.154Z,1009.14
2018-07-30T02:14:47.793Z,1009.15
2018-07-30T02:15:56.447Z,1009.16
2018-07-30T02:17:05.096Z,1009.18
2018-07-30T02:18:13.754Z,1009.18
2018-07-30T02:19:22.399Z,1009.17
2018-07-30T02:20:31.311Z,1009.17
2018-07-30T02:21:39.960Z,1009.17
2018-07-30T02:22:48.871Z,1009.19
2018-07-30T02:23:57.524Z,1009.2
2018-07-30T02:25:06.173Z,1009.17
2018-07-30T02:26:14.822Z,1009.21
2018-07-30T02:27:23.470Z,1009.19
2018-07-30T02:28:32.124Z,1009.26
2018-07-30T02:29:40.772Z,1009.24
2018-07-30T02:30:49.681Z,1009.23
2018-07-30T02:31:58.323Z,1009.25
2018-07-30T02:33:06.978Z,1009.24
2018-07-30T02:34:15.625Z,1009.28
2018-07-30T02:35:24.279Z,1009.25
2018-07-30T02:36:32.927Z,1009.21
2018-07-30T02:37:41.576Z,1009.26
2018-07-30T02:38:50.230Z,1009.24
2018-07-30T02:39:58.886Z,1009.24
2018-07-30T02:41:07.543Z,1009.24
2018-07-30T02:42:16.453Z,1009.25
2018-07-30T02:43:25.108Z,1009.24
2018-07-30T02:44:33.759Z,1009.26
2018-07-30T02:45:42.414Z,1009.23
2018-07-30T02:46:51.330Z,1009.26
2018-07-30T02:48:00.249Z,1009.23
2018-07-30T02:49:09.427Z,1009.27
2018-07-30T02:50:18.100Z,1009.26
2018-07-30T02:51:26.749Z,1009.25
2018-07-30T02:52:35.407Z,1009.25
2018-07-30T02:53:44.588Z,1009.28
2018-07-30T02:54:53.250Z,1009.26
2018-07-30T02:56:01.909Z,1009.29
2018-07-30T02:57:10.559Z,1009.3
2018-07-30T02:58:19.208Z,1009.27
2018-07-30T02:59:27.854Z,1009.31
2018-07-30T03:00:36.770Z,1009.3
2018-07-30T03:01:45.419Z,1009.33
2018-07-30T03:02:54.074Z,1009.34
2018-07-30T03:04:02.713Z,1009.32
2018-07-30T03:05:11.368Z,1009.33
2018-07-30T03:06:20.021Z,1009.3
2018-07-30T03:07:28.671Z,1009.32
2018-07-30T03:08:37.316Z,1009.33
2018-07-30T03:09:45.969Z,1009.36
2018-07-30T03:10:54.884Z,1009.39
2018-07-30T03:12:03.545Z,1009.37
2018-07-30T03:13:12.187Z,1009.35
2018-07-30T03:14:20.834Z,1009.41
2018-07-30T03:15:29.485Z,1009.42
2018-07-30T03:16:38.137Z,1009.42
2018-07-30T03:17:46.790Z,1009.43
2018-07-30T03:18:55.708Z,1009.43
2018-07-30T03:20:04.355Z,1009.43
2018-07-30T03:21:13.000Z,1009.45
2018-07-30T03:22:21.658Z,1009.48
2018-07-30T03:23:30.313Z,1009.45
2018-07-30T03:24:38.967Z,1009.48
2018-07-30T03:25:47.612Z,1009.47
2018-07-30T03:26:56.269Z,1009.47
2018-07-30T03:28:04.909Z,1009.45
2018-07-30T03:29:13.558Z,1009.47
2018-07-30T03:30:22.206Z,1009.44
2018-07-30T03:31:31.142Z,1009.45
2018-07-30T03:32:40.052Z,1009.46
2018-07-30T03:33:48.701Z,1009.49
2018-07-30T03:34:57.347Z,1009.49
2018-07-30T03:36:05.996Z,1009.52
2018-07-30T03:37:14.654Z,1009.51
2018-07-30T03:38:23.294Z,1009.51
2018-07-30T03:39:31.946Z,1009.5
2018-07-30T03:40:40.587Z,1009.48
2018-07-30T03:41:49.242Z,1009.47
2018-07-30T03:42:57.885Z,1009.51
2018-07-30T03:44:06.539Z,1009.47
2018-07-30T03:45:15.182Z,1009.45
2018-07-30T03:46:24.101Z,1009.44
2018-07-30T03:47:32.748Z,1009.42
2018-07-30T03:48:41.666Z,1009.44
2018-07-30T03:49:50.308Z,1009.43
2018-07-30T03:50:58.960Z,1009.48
2018-07-30T03:52:07.881Z,1009.54
2018-07-30T03:53:16.532Z,1009.52
2018-07-30T03:54:25.190Z,1009.5
2018-07-30T03:55:33.824Z,1009.54
2018-07-30T03:56:42.477Z,1009.57
2018-07-30T03:57:51.153Z,1009.61
2018-07-30T03:59:00.154Z,1009.61
2018-07-30T04:00:08.845Z,1009.63
2018-07-30T04:01:17.450Z,1009.62
2018-07-30T04:02:26.089Z,1009.62
2018-07-30T04:03:34.746Z,1009.61
2018-07-30T04:04:43.386Z,1009.63
2018-07-30T04:05:52.111Z,1009.6
2018-07-30T04:07:00.959Z,1009.57
2018-07-30T04:08:09.616Z,1009.55
2018-07-30T04:09:18.260Z,1009.56
2018-07-30T04:10:26.905Z,1009.57
2018-07-30T04:11:35.554Z,1009.53
2018-07-30T04:12:44.246Z,1009.54
2018-07-30T04:13:52.859Z,1009.57
2018-07-30T04:15:01.501Z,1009.59
2018-07-30T04:16:10.155Z,1009.57
2018-07-30T04:17:18.797Z,1009.58
2018-07-30T04:18:27.451Z,1009.59
2018-07-30T04:19:36.109Z,1009.59
2018-07-30T04:20:45.013Z,1009.61
2018-07-30T04:21:53.674Z,1009.61
2018-07-30T04:23:02.312Z,1009.62
2018-07-30T04:24:11.227Z,1009.65
2018-07-30T04:25:19.872Z,1009.69
2018-07-30T04:26:28.529Z,1009.69
2018-07-30T04:27:37.177Z,1009.65
2018-07-30T04:28:45.824Z,1009.68
2018-07-30T04:29:54.733Z,1009.68
2018-07-30T04:31:03.380Z,1009.71
2018-07-30T04:32:12.041Z,1009.72
2018-07-30T04:33:20.944Z,1009.72
2018-07-30T04:34:29.597Z,1009.73
2018-07-30T04:35:38.238Z,1009.75
2018-07-30T04:36:46.897Z,1009.7
2018-07-30T04:37:55.551Z,1009.75
2018-07-30T04:39:04.467Z,1009.76
2018-07-30T04:40:13.107Z,1009.8
2018-07-30T04:41:21.772Z,1009.77
2018-07-30T04:42:30.413Z,1009.78
2018-07-30T04:43:39.119Z,1009.79
2018-07-30T04:44:47.704Z,1009.84
2018-07-30T04:45:56.355Z,1009.81
2018-07-30T04:47:05.009Z,1009.82
2018-07-30T04:48:13.659Z,1009.85
2018-07-30T04:49:22.346Z,1009.85
2018-07-30T04:50:30.959Z,1009.83
2018-07-30T04:51:39.612Z,1009.9
2018-07-30T04:52:48.257Z,1009.89
2018-07-30T04:53:56.913Z,1009.91
2018-07-30T04:55:05.554Z,1009.9
2018-07-30T04:56:14.210Z,1009.95
2018-07-30T04:57:22.848Z,1009.97
2018-07-30T04:58:31.504Z,1009.95
2018-07-30T04:59:40.144Z,1009.96
2018-07-30T05:00:48.796Z,1009.97
2018-07-30T05:01:57.444Z,1009.99
2018-07-30T05:03:06.105Z,1009.95
2018-07-30T05:04:14.753Z,1009.94
2018-07-30T05:05:23.930Z,1009.98
2018-07-30T05:06:32.582Z,1009.92
2018-07-30T05:07:41.232Z,1009.98
2018-07-30T05:08:49.892Z,1010
2018-07-30T05:09:58.798Z,1009.99
2018-07-30T05:11:07.453Z,1010.01
2018-07-30T05:12:16.382Z,1010.02
2018-07-30T05:13:25.043Z,1010.05
2018-07-30T05:14:33.952Z,1010.03
2018-07-30T05:15:42.604Z,1010.01
2018-07-30T05:16:51.246Z,1010.07
2018-07-30T05:18:00.165Z,1010.05
2018-07-30T05:19:08.814Z,1010.02
2018-07-30T05:20:17.743Z,1009.97
2018-07-30T05:21:26.390Z,1010.01
2018-07-30T05:22:35.040Z,1010.02
2018-07-30T05:23:43.689Z,1010.02
2018-07-30T05:24:52.603Z,1010
2018-07-30T05:26:01.262Z,1010.04
2018-07-30T05:27:09.919Z,1010.06
2018-07-30T05:28:19.371Z,1010.06
2018-07-30T05:29:28.020Z,1010.1
2018-07-30T05:30:36.681Z,1010.06
2018-07-30T05:31:45.406Z,1010.11
2018-07-30T05:32:53.979Z,1010.09
2018-07-30T05:34:02.636Z,1010.03
2018-07-30T05:35:11.552Z,1010.08
2018-07-30T05:36:20.197Z,1010.09
2018-07-30T05:37:29.115Z,1010.09
2018-07-30T05:38:37.763Z,1010.13
2018-07-30T05:39:46.425Z,1010.14
2018-07-30T05:40:55.066Z,1010.14
2018-07-30T05:42:03.716Z,1010.14
2018-07-30T05:43:12.364Z,1010.14
2018-07-30T05:44:21.050Z,1010.14
2018-07-30T05:45:29.657Z,1010.14
2018-07-30T05:46:38.570Z,1010.16
2018-07-30T05:47:47.220Z,1010.14
2018-07-30T05:48:55.863Z,1010.18
2018-07-30T05:50:04.855Z,1010.18
2018-07-30T05:51:13.434Z,1010.18
2018-07-30T05:52:22.090Z,1010.18
2018-07-30T05:53:30.733Z,1010.18
2018-07-30T05:54:39.393Z,1010.18
2018-07-30T05:55:48.297Z,1010.16
2018-07-30T05:56:57.208Z,1010.16
2018-07-30T05:58:06.118Z,1010.17
2018-07-30T05:59:14.771Z,1010.25
2018-07-30T06:00:23.422Z,1010.22
2018-07-30T06:01:32.078Z,1010.26
2018-07-30T06:02:40.729Z,1010.25
2018-07-30T06:03:49.375Z,1010.26
2018-07-30T06:04:58.025Z,1010.25
2018-07-30T06:06:06.675Z,1010.28
2018-07-30T06:07:15.333Z,1010.26
2018-07-30T06:08:23.981Z,1010.24
2018-07-30T06:09:32.652Z,1010.29
2018-07-30T06:10:41.278Z,1010.22
2018-07-30T06:11:49.933Z,1010.29
2018-07-30T06:12:58.580Z,1010.31
2018-07-30T06:14:07.502Z,1010.27
2018-07-30T06:15:16.152Z,1010.32
2018-07-30T06:16:24.791Z,1010.32
2018-07-30T06:17:33.444Z,1010.32
2018-07-30T06:18:42.097Z,1010.34
2018-07-30T06:19:50.756Z,1010.3
2018-07-30T06:20:59.462Z,1010.3
2018-07-30T06:22:08.048Z,1010.31
2018-07-30T06:23:16.706Z,1010.31
2018-07-30T06:24:25.349Z,1010.33
2018-07-30T06:25:34.009Z,1010.34
2018-07-30T06:26:42.656Z,1010.3
2018-07-30T06:27:51.309Z,1010.34
2018-07-30T06:28:59.957Z,1010.35
2018-07-30T06:30:08.615Z,1010.34
2018-07-30T06:31:17.259Z,1010.35
2018-07-30T06:32:25.911Z,1010.36
2018-07-30T06:33:34.559Z,1010.31
2018-07-30T06:34:43.218Z,1010.29
2018-07-30T06:35:51.866Z,1010.29
2018-07-30T06:37:00.514Z,1010.3
2018-07-30T06:38:09.159Z,1010.32
2018-07-30T06:39:17.810Z,1010.34
2018-07-30T06:40:26.741Z,1010.33
2018-07-30T06:41:35.389Z,1010.31
2018-07-30T06:42:44.045Z,1010.31
2018-07-30T06:43:52.690Z,1010.29
2018-07-30T06:45:01.352Z,1010.25
2018-07-30T06:46:09.998Z,1010.27
2018-07-30T06:47:18.659Z,1010.31
2018-07-30T06:48:27.298Z,1010.27
2018-07-30T06:49:35.957Z,1010.29
2018-07-30T06:50:44.606Z,1010.31
2018-07-30T06:51:53.265Z,1010.29
2018-07-30T06:53:01.904Z,1010.31
2018-07-30T06:54:10.559Z,1010.31
2018-07-30T06:55:19.485Z,1010.32
2018-07-30T06:56:28.407Z,1010.31
2018-07-30T06:57:37.059Z,1010.34
2018-07-30T06:58:45.700Z,1010.29
2018-07-30T06:59:54.368Z,1010.3
2018-07-30T07:01:03.324Z,1010.31
2018-07-30T07:02:11.984Z,1010.36
2018-07-30T07:03:20.673Z,1010.37
2018-07-30T07:04:29.280Z,1010.37
2018-07-30T07:05:38.457Z,1010.36
2018-07-30T07:06:47.117Z,1010.36
2018-07-30T07:07:55.765Z,1010.4
2018-07-30T07:09:04.674Z,1010.36
2018-07-30T07:10:13.321Z,1010.38
2018-07-30T07:11:21.983Z,1010.44
2018-07-30T07:12:30.635Z,1010.44
2018-07-30T07:13:39.286Z,1010.4
2018-07-30T07:14:47.936Z,1010.39
2018-07-30T07:15:56.587Z,1010.4
2018-07-30T07:17:05.243Z,1010.44
2018-07-30T07:18:13.939Z,1010.41
2018-07-30T07:19:22.550Z,1010.42
2018-07-30T07:20:31.198Z,1010.42
2018-07-30T07:21:40.302Z,1010.45
2018-07-30T07:22:49.169Z,1010.48
2018-07-30T07:23:57.822Z,1010.46
2018-07-30T07:25:06.731Z,1010.5
2018-07-30T07:26:15.653Z,1010.54
2018-07-30T07:27:24.302Z,1010.51
2018-07-30T07:28:32.953Z,1010.53
2018-07-30T07:29:41.599Z,1010.57
2018-07-30T07:30:50.520Z,1010.58
2018-07-30T07:31:59.172Z,1010.56
2018-07-30T07:33:07.827Z,1010.58
2018-07-30T07:34:16.480Z,1010.6
2018-07-30T07:35:25.130Z,1010.59
2018-07-30T07:36:33.778Z,1010.57
2018-07-30T07:37:42.433Z,1010.56
2018-07-30T07:38:51.355Z,1010.56
2018-07-30T07:40:00.001Z,1010.52
2018-07-30T07:41:08.657Z,1010.55
2018-07-30T07:42:17.576Z,1010.54
2018-07-30T07:43:26.231Z,1010.56
2018-07-30T07:44:34.879Z,1010.54
2018-07-30T07:45:43.846Z,1010.53
2018-07-30T07:46:52.758Z,1010.55
2018-07-30T07:48:01.417Z,1010.55
2018-07-30T07:49:10.069Z,1010.55
2018-07-30T07:50:19.416Z,1010.49
2018-07-30T07:51:27.891Z,1010.46
2018-07-30T07:52:36.544Z,1010.52
2018-07-30T07:53:45.460Z,1010.53
2018-07-30T07:54:54.380Z,1010.56
2018-07-30T07:56:03.288Z,1010.55
2018-07-30T07:57:11.938Z,1010.6
2018-07-30T07:58:20.594Z,1010.64
2018-07-30T07:59:29.249Z,1010.62
2018-07-30T08:00:37.901Z,1010.65
2018-07-30T08:01:46.814Z,1010.64
2018-07-30T08:02:55.473Z,1010.63
2018-07-30T08:04:04.123Z,1010.67
2018-07-30T08:05:12.778Z,1010.64
2018-07-30T08:06:21.503Z,1010.67
2018-07-30T08:07:30.080Z,1010.68
2018-07-30T08:08:38.733Z,1010.71
2018-07-30T08:09:47.445Z,1010.7
2018-07-30T08:10:56.084Z,1010.71
2018-07-30T08:12:04.699Z,1010.69
2018-07-30T08:13:13.629Z,1010.69
2018-07-30T08:14:22.282Z,1010.68
2018-07-30T08:15:30.930Z,1010.67
2018-07-30T08:16:39.590Z,1010.66
2018-07-30T08:17:48.245Z,1010.67
2018-07-30T08:18:56.900Z,1010.68
2018-07-30T08:20:05.549Z,1010.64
2018-07-30T08:21:14.210Z,1010.68
2018-07-30T08:22:22.979Z,1010.7
2018-07-30T08:23:31.516Z,1010.64
2018-07-30T08:24:40.165Z,1010.63
2018-07-30T08:25:48.821Z,1010.66
2018-07-30T08:26:57.475Z,1010.65
2018-07-30T08:28:06.394Z,1010.67
2018-07-30T08:29:15.049Z,1010.68
2018-07-30T08:30:23.697Z,1010.74
2018-07-30T08:31:32.352Z,1010.72
2018-07-30T08:32:41.265Z,1010.74
2018-07-30T08:33:49.927Z,1010.72
2018-07-30T08:34:58.840Z,1010.73
2018-07-30T08:36:07.492Z,1010.71
2018-07-30T08:37:16.146Z,1010.73
2018-07-30T08:38:25.080Z,1010.73
2018-07-30T08:39:33.728Z,1010.77
2018-07-30T08:40:42.649Z,1010.78
2018-07-30T08:41:51.561Z,1010.72
2018-07-30T08:43:00.228Z,1010.72
2018-07-30T08:44:08.885Z,1010.71
2018-07-30T08:45:17.537Z,1010.73
2018-07-30T08:46:26.189Z,1010.72
2018-07-30T08:47:34.841Z,1010.74
2018-07-30T08:48:43.521Z,1010.7
2018-07-30T08:49:52.157Z,1010.72
2018-07-30T08:51:00.808Z,1010.67
2018-07-30T08:52:09.457Z,1010.7
2018-07-30T08:53:18.115Z,1010.72
2018-07-30T08:54:26.770Z,1010.7
2018-07-30T08:55:35.955Z,1010.72
2018-07-30T08:56:44.864Z,1010.78
2018-07-30T08:57:53.520Z,1010.77
2018-07-30T08:59:02.173Z,1010.76
2018-07-30T09:00:10.829Z,1010.79
2018-07-30T09:01:19.740Z,1010.73
2018-07-30T09:02:28.399Z,1010.75
2018-07-30T09:03:37.053Z,1010.73
2018-07-30T09:04:45.709Z,1010.73
2018-07-30T09:05:54.368Z,1010.77
2018-07-30T09:07:03.045Z,1010.76
2018-07-30T09:08:11.997Z,1010.77
2018-07-30T09:09:20.650Z,1010.83
2018-07-30T09:10:29.310Z,1010.77
2018-07-30T09:11:37.955Z,1010.8
2018-07-30T09:12:46.806Z,1010.76
2018-07-30T09:13:55.261Z,1010.77
2018-07-30T09:15:04.194Z,1010.81
2018-07-30T09:16:12.840Z,1010.74
2018-07-30T09:17:21.632Z,1010.64
2018-07-30T09:18:30.404Z,1010.65
2018-07-30T09:19:39.068Z,1010.62
2018-07-30T09:20:47.719Z,1010.59
2018-07-30T09:21:56.369Z,1010.6
2018-07-30T09:23:05.026Z,1010.61
2018-07-30T09:24:14.205Z,1010.68
2018-07-30T09:25:22.867Z,1010.67
2018-07-30T09:26:31.523Z,1010.68
2018-07-30T09:27:40.180Z,1010.72
2018-07-30T09:28:49.091Z,1010.73
2018-07-30T09:29:57.755Z,1010.74
2018-07-30T09:31:06.416Z,1010.77
2018-07-30T09:32:15.076Z,1010.83
2018-07-30T09:33:23.725Z,1010.87
2018-07-30T09:34:32.387Z,1010.82
2018-07-30T09:35:41.039Z,1010.84
2018-07-30T09:36:49.696Z,1010.88
2018-07-30T09:37:58.344Z,1010.87
2018-07-30T09:39:07.004Z,1010.87
2018-07-30T09:40:15.660Z,1010.85
2018-07-30T09:41:24.318Z,1010.79
2018-07-30T09:42:32.972Z,1010.77
2018-07-30T09:43:41.878Z,1010.8
2018-07-30T09:44:50.838Z,1010.82
2018-07-30T09:45:59.859Z,1010.8
2018-07-30T09:47:08.521Z,1010.8
2018-07-30T09:48:17.166Z,1010.78
2018-07-30T09:49:25.825Z,1010.76
2018-07-30T09:50:34.503Z,1010.75
2018-07-30T09:51:43.519Z,1010.76
2018-07-30T09:52:52.187Z,1010.77
2018-07-30T09:54:00.822Z,1010.74
2018-07-30T09:55:09.477Z,1010.76
2018-07-30T09:56:18.283Z,1010.75
2018-07-30T09:57:26.798Z,1010.69
2018-07-30T09:58:35.447Z,1010.68
2018-07-30T09:59:44.357Z,1010.67
2018-07-30T10:00:53.009Z,1010.68
2018-07-30T10:02:01.934Z,1010.69
2018-07-30T10:03:10.587Z,1010.65
2018-07-30T10:04:19.517Z,1010.61
2018-07-30T10:05:28.167Z,1010.59
2018-07-30T10:06:36.828Z,1010.52
2018-07-30T10:07:45.486Z,1010.6
2018-07-30T10:08:54.408Z,1010.58
2018-07-30T10:10:03.056Z,1010.61
2018-07-30T10:11:11.718Z,1010.6
2018-07-30T10:12:20.378Z,1010.6
2018-07-30T10:13:29.037Z,1010.59
2018-07-30T10:14:37.685Z,1010.53
2018-07-30T10:15:46.342Z,1010.53
2018-07-30T10:16:54.998Z,1010.49
2018-07-30T10:18:03.696Z,1010.46
2018-07-30T10:19:12.953Z,1010.52
2018-07-30T10:20:21.608Z,1010.47
2018-07-30T10:21:30.523Z,1010.54
2018-07-30T10:22:39.177Z,1010.52
2018-07-30T10:23:47.859Z,1010.57
2018-07-30T10:24:56.863Z,1010.54
2018-07-30T10:26:05.520Z,1010.52
2018-07-30T10:27:14.444Z,1010.52
2018-07-30T10:28:23.108Z,1010.53
2018-07-30T10:29:32.020Z,1010.48
2018-07-30T10:30:40.688Z,1010.47
2018-07-30T10:31:49.763Z,1010.41
2018-07-30T10:32:58.686Z,1010.43
2018-07-30T10:34:07.337Z,1010.47
2018-07-30T10:35:15.992Z,1010.48
2018-07-30T10:36:24.910Z,1010.44
2018-07-30T10:37:33.562Z,1010.4
2018-07-30T10:38:42.491Z,1010.41
2018-07-30T10:39:51.450Z,1010.44
2018-07-30T10:41:00.444Z,1010.45
2018-07-30T10:42:09.094Z,1010.42
2018-07-30T10:43:17.761Z,1010.44
2018-07-30T10:44:26.411Z,1010.42
2018-07-30T10:45:35.066Z,1010.39
2018-07-30T10:46:43.721Z,1010.42
2018-07-30T10:47:52.654Z,1010.41
2018-07-30T10:49:01.303Z,1010.42
2018-07-30T10:50:09.962Z,1010.51
2018-07-30T10:51:18.608Z,1010.5
2018-07-30T10:52:27.269Z,1010.48
2018-07-30T10:53:35.923Z,1010.45
2018-07-30T10:54:44.584Z,1010.42
2018-07-30T10:55:53.242Z,1010.43
2018-07-30T10:57:01.896Z,1010.48
2018-07-30T10:58:10.552Z,1010.43
2018-07-30T10:59:19.207Z,1010.47
2018-07-30T11:00:27.869Z,1010.47
2018-07-30T11:01:36.521Z,1010.45
2018-07-30T11:02:45.177Z,1010.41
2018-07-30T11:03:53.831Z,1010.38
2018-07-30T11:05:02.493Z,1010.34
2018-07-30T11:06:11.145Z,1010.36
2018-07-30T11:07:19.803Z,1010.35
2018-07-30T11:08:28.460Z,1010.36
2018-07-30T11:09:37.151Z,1010.4
2018-07-30T11:10:45.789Z,1010.36
2018-07-30T11:11:54.738Z,1010.37
2018-07-30T11:13:03.653Z,1010.36
2018-07-30T11:14:12.309Z,1010.37
2018-07-30T11:15:20.973Z,1010.36
2018-07-30T11:16:29.629Z,1010.32
2018-07-30T11:17:38.287Z,1010.27
2018-07-30T11:18:46.935Z,1010.28
2018-07-30T11:19:55.598Z,1010.27
2018-07-30T11:21:04.250Z,1010.29
2018-07-30T11:22:12.911Z,1010.3
2018-07-30T11:23:21.578Z,1010.29
2018-07-30T11:24:30.226Z,1010.3
2018-07-30T11:25:38.879Z,1010.31
2018-07-30T11:26:47.541Z,1010.29
2018-07-30T11:27:56.203Z,1010.28
2018-07-30T11:29:05.231Z,1010.28
2018-07-30T11:30:13.892Z,1010.33
2018-07-30T11:31:22.545Z,1010.33
2018-07-30T11:32:32.332Z,1010.36
2018-07-30T11:33:41.435Z,1010.32
2018-07-30T11:34:50.038Z,1010.32
2018-07-30T11:35:59.001Z,1010.35
2018-07-30T11:37:07.666Z,1010.27
2018-07-30T11:38:16.312Z,1010.26
2018-07-30T11:39:24.974Z,1010.25
2018-07-30T11:40:33.888Z,1010.24
2018-07-30T11:41:42.553Z,1010.23
2018-07-30T11:42:51.493Z,1010.22
2018-07-30T11:44:00.120Z,1010.26
2018-07-30T11:45:08.775Z,1010.22
2018-07-30T11:46:17.440Z,1010.17
2018-07-30T11:47:26.092Z,1010.2
2018-07-30T11:48:34.761Z,1010.18
2018-07-30T11:49:43.404Z,1010.13
2018-07-30T11:50:52.057Z,1010.07
2018-07-30T11:52:00.984Z,1010.1
2018-07-30T11:53:09.640Z,1010.08
2018-07-30T11:54:18.358Z,1010.08
2018-07-30T11:55:26.955Z,1010.01
2018-07-30T11:56:35.876Z,1010.06
2018-07-30T11:57:44.527Z,1010.08
2018-07-30T11:58:53.189Z,1010.05
2018-07-30T12:00:01.837Z,1010.11
2018-07-30T12:01:10.667Z,1010.08
2018-07-30T12:02:19.154Z,1010.03
2018-07-30T12:03:28.078Z,1010.08
2018-07-30T12:04:36.723Z,1010.08
2018-07-30T12:05:45.384Z,1010.12
2018-07-30T12:06:54.049Z,1010.06
2018-07-30T12:08:02.702Z,1010.07
2018-07-30T12:09:11.355Z,1010.11
2018-07-30T12:10:20.021Z,1010.08
2018-07-30T12:11:28.678Z,1010.11
2018-07-30T12:12:37.335Z,1010.1
2018-07-30T12:13:45.982Z,1010.07
2018-07-30T12:14:54.912Z,1010.04
2018-07-30T12:16:03.565Z,1010.07
2018-07-30T12:17:12.488Z,1010.02
2018-07-30T12:18:21.136Z,1009.98
2018-07-30T12:19:30.072Z,1010
2018-07-30T12:20:38.720Z,1009.93
2018-07-30T12:21:47.442Z,1009.94
2018-07-30T12:22:56.031Z,1009.94
2018-07-30T12:24:04.969Z,1009.91
2018-07-30T12:25:14.245Z,1009.95
2018-07-30T12:26:23.164Z,1009.97
2018-07-30T12:27:31.841Z,1009.93
2018-07-30T12:28:40.472Z,1009.95
2018-07-30T12:29:49.134Z,1009.98
2018-07-30T12:30:57.787Z,1009.95
2018-07-30T12:32:06.461Z,1009.94
2018-07-30T12:33:15.104Z,1009.91
2018-07-30T12:34:24.033Z,1009.9
2018-07-30T12:35:32.686Z,1009.95
2018-07-30T12:36:41.618Z,1009.97
2018-07-30T12:37:50.535Z,1009.95
2018-07-30T12:38:59.199Z,1010.03
2018-07-30T12:40:07.855Z,1010.01
2018-07-30T12:41:16.522Z,1010
2018-07-30T12:42:25.199Z,1009.9
2018-07-30T12:43:34.106Z,1009.88
2018-07-30T12:44:42.753Z,1009.9
2018-07-30T12:45:51.410Z,1009.9
2018-07-30T12:47:00.077Z,1009.88
2018-07-30T12:48:08.731Z,1009.92
2018-07-30T12:49:17.397Z,1009.84
2018-07-30T12:50:26.081Z,1009.81
2018-07-30T12:51:34.711Z,1009.84
2018-07-30T12:52:43.363Z,1009.86
2018-07-30T12:53:52.038Z,1009.87
2018-07-30T12:55:00.676Z,1009.83
2018-07-30T12:56:09.351Z,1009.87
2018-07-30T12:57:18.005Z,1009.84
2018-07-30T12:58:26.664Z,1009.82
2018-07-30T12:59:35.312Z,1009.77
2018-07-30T13:00:43.975Z,1009.77
2018-07-30T13:01:52.635Z,1009.78
2018-07-30T13:03:01.432Z,1009.77
2018-07-30T13:04:10.283Z,1009.75
2018-07-30T13:05:18.932Z,1009.79
2018-07-30T13:06:27.593Z,1009.79
2018-07-30T13:07:36.254Z,1009.78
2018-07-30T13:08:45.443Z,1009.74
2018-07-30T13:09:54.101Z,1009.82
2018-07-30T13:11:02.758Z,1009.78
2018-07-30T13:12:11.416Z,1009.78
2018-07-30T13:13:20.078Z,1009.75
2018-07-30T13:14:28.994Z,1009.73
2018-07-30T13:15:37.920Z,1009.75
2018-07-30T13:16:46.577Z,1009.75
2018-07-30T13:17:55.237Z,1009.71
2018-07-30T13:19:03.892Z,1009.71
2018-07-30T13:20:12.813Z,1009.71
2018-07-30T13:21:21.485Z,1009.66
2018-07-30T13:22:30.124Z,1009.62
2018-07-30T13:23:38.786Z,1009.65
2018-07-30T13:24:47.445Z,1009.6
2018-07-30T13:25:56.365Z,1009.59
2018-07-30T13:27:05.019Z,1009.58
2018-07-30T13:28:13.945Z,1009.62
2018-07-30T13:29:22.607Z,1009.59
2018-07-30T13:30:31.530Z,1009.56
2018-07-30T13:31:40.179Z,1009.54
2018-07-30T13:32:48.872Z,1009.53
2018-07-30T13:33:57.867Z,1009.49
2018-07-30T13:35:06.811Z,1009.53
2018-07-30T13:36:15.737Z,1009.57
2018-07-30T13:37:24.396Z,1009.52
2018-07-30T13:38:33.320Z,1009.52
2018-07-30T13:39:41.983Z,1009.51
2018-07-30T13:40:50.647Z,1009.53
2018-07-30T13:41:59.300Z,1009.58
2018-07-30T13:43:07.961Z,1009.53
2018-07-30T13:44:16.620Z,1009.52
2018-07-30T13:45:25.543Z,1009.49
2018-07-30T13:46:34.194Z,1009.51
2018-07-30T13:47:43.380Z,1009.45
2018-07-30T13:48:52.039Z,1009.43
2018-07-30T13:50:00.702Z,1009.44
2018-07-30T13:51:09.617Z,1009.45
2018-07-30T13:52:18.275Z,1009.44
2018-07-30T13:53:26.936Z,1009.46
2018-07-30T13:54:35.715Z,1009.51